Aviation Digital Data Service (ADDS)

Output produced by METARs form (1745 UTC 25 February 2018)
found at http://aviationweather.gov/adds/metars/
 
KBGR 251729Z 2518/2618 12009KT 1SM -SN SCT004 OVC010 
     FM252300 14009KT 3SM -FZDZ BKN007 OVC010 
     FM260300 VRB03KT 1SM -FZDZ BR BKN003 OVC010 
     FM261400 27009KT P6SM SCT015